Delta A320 at Minneapolis on Jun 10th 2012, turbulence causes serious injury

Last Update: October 23, 2015 / 20:38:30 GMT/Zulu time

Bookmark this article
Incident Facts

Date of incident
Jun 10, 2012

Classification
Accident

Flight number
DL-888

Aircraft Registration
N352NW

Aircraft Type
Airbus A320

ICAO Type Designator
A320

A Delta Airlines Airbus A320-200, registration N352NW performing flight DL-888 from Atlanta,GA to Minneapolis,MN (USA) with 150 people on board, was on approach to Minneapolis at about 20:58L (01:58Z Jun 11th), at that time Minneapolis Airport was under the influence of a massive thunderstorm cell. Approach Control characterized the cell to span more than 25nm and estimated the cell would take more than 30 minutes to move past the aerodrome, no aircraft had made it into Minneapolis in the last 5 minutes and many aircraft were diverting. N352NW entered a holding at FL210 but experienced turbulence causing a serious injury to one flight attendant. The crew decided to divert to Madison,WI where the aircraft landed safely about 25 minutes later. The injured was taken to a hospital.

The aircraft reached Minneapolis with a delay of about 3 hours.

The French BEA reported on Jun 20th 2012 that one cabin crew received a serious injury as result of turbulence, the NTSB is investigating the accident.

As of Jun 20th 2012 neither FAA in their preliminary reports nor the NTSB have yet released information on this accident.

In October 2015 the NTSB released their brief final report concluding the cause of the accident was:

Inadvertent encounter with convective turbulence while in descent.

The crew had received a forecast of turbulence during the descent into Minneapolis and therefore illuminated the fasten seat belt signs prior to commencing the descent. While descending and maneouvering to avoid weather and radar returns the aircraft encountered turbulence causing a flight attendant standing in the aft galley to lift off the floor and to be thrown back onto the floor, the flight attendant received a serious injury to his right ankle.



Metars:
KMSP 110653Z 00000KT 10SM BKN070 BKN080 OVC100 18/16 A2975 RMK AO2 SLP067 T01780161 $
KMSP 110553Z 25005KT 10SM FEW065 SCT130 OVC200 18/16 A2975 RMK AO2 RAE07 SLP068 CONS LTGIC DSNT E-SE P0000 60037 T01780161 10322 20178 403390178 51010 $
KMSP 110453Z 34006KT 9SM -RA FEW037 BKN110 OVC130 18/16 A2973 RMK AO2 TSE0358B0359E20 SLP063 TS MOV NE P0014 T01780161 $
KMSP 110420Z 29005KT 3SM RA BR FEW070 SCT085 OVC110 18/17 A2976 RMK AO2 TSE0358B0359E20 OCNL LTGICCC DSNT NE TS MOV NE P0010 $
KMSP 110359Z 29012G19KT 4SM TSRA BR BKN042CB OVC110 18/17 A2974 RMK AO2 TSE58B59 OCNL LTGICCC N TS N MOV NE P0002 $
KMSP 110353Z 30012KT 6SM TSRA BR FEW012 BKN060CB OVC120 18/17 A2974 RMK AO2 TSE37B46 PRESFR SLP064 OCNL LTGICCC NE TS NE MOV NE P0004 T01830172
KMSP 110347Z 29013KT 7SM TSRA FEW012 BKN065CB OVC120 18/17 A2975 RMK AO2 TSE37B46 OCNL LTGICCC N TS N MOV NE P0003
KMSP 110337Z 29012G18KT 10SM -RA SCT010 BKN043 OVC060 19/17 A2977 RMK AO2 TSE37PRESRR OCNL LTGICCC DSNT NE TS MOV NE CB DSNT NE P0001
KMSP 110302Z 29015G23KT 7SM -TSRA BKN012 OVC065CB 20/18 A2972 RMK AO2 OCNL LTGICCC SW TS SW MOV NE P0001
KMSP 110253Z 27017G22KT 5SM TSRA BR FEW010 BKN060CB OVC110 21/19 A2972 RMK AO2 PK WND 25045/0155 WSHFT 0145 RAB0156 SLP057 OCNL LTGICCC SW TS SW MOV NE P0019 60019 T02060194 53040
KMSP 110224Z 25011G25KT 3SM TSRA BR FEW030 BKN060CB OVC095 21/19 A2968 RMK AO2 PK WND 25045/0155 WSHFT 0145 RAB0156 CONS LTGICCCCG SW-W TS SW-W MOV NE P0015
KMSP 110213Z 23023G34KT 1 3/4SM R30L/6000VP6000FT TSRA BR FEW029 SCT044 OVC060CB 22/19 A2967 RMK AO2 PK WND 25045/0155 WSHFT 0145 VIS 1V5 RAB0156 CONS LTGICCCCG
KMSP 110205Z 24024G41KT 6SM -TSRA FEW015 SCT032 OVC065CB 23/20 A2966 RMK AO2 PKWND 25045/0155 WSHFT 0145 RAB0156 PRESRR CONS LTGICCCCG SW-W TS SW-S MOV NE P000
KMSP 110156Z 25032G45KT 10SM -TSRA FEW015 BKN070CB 29/17 A2961 RMK AO2 PK WND 25045/0155 RAB56 PRESRR CONS LTGICCCCG SW-W TS SW-S MOV NE P0000
KMSP 110153Z 20020G34KT 10SM TS FEW015 BKN070CB 31/15 A2959 RMK AO2 PK WND 22034/0153 TSB13 SLP012 CONS LTGICCCCG SW-W TS SW-W MOV NE T03060150
KMSP 110114Z 17017G29KT 10SM TS FEW035 BKN075CB OVC110 32/15 A2957 RMK AO2 PK WND 17030/0101 TSB13 FRQ LTGICCCCG W-NW TS W-NW MOV NE
KMSP 110053Z 17021G30KT 10SM BKN080 32/14 A2959 RMK AO2 PK WND 17032/0035 SLP012 OCNL LTGICCG DSNT W AND DSNT NW CB DSNT W AND DSNT NW T03170144
KMSP 102353Z COR 17019G26KT 10SM FEW050 BKN090 32/14 A2959 RMK AO2 PK WND 18032/2337 SLP014 CB DSNT W AND DSNT NW T03220144 10339 20322 56017
KMSP 102253Z 18017G28KT 10SM FEW080 SCT100 SCT200 33/14 A2960 RMK AO2 PK WND 17032/2242 SLP016 CB DSNT W AND DSNT NW T03330139
KMSP 102153Z 17022G27KT 10SM FEW080 SCT095 33/14 A2962 RMK AO2 PK WND 19032/2102 SLP023 T03330144
KMSP 102053Z 19019G28KT 10SM SCT070 33/14 A2964 RMK AO2 PK WND 18032/2011 SLP031 T03330144 55006
Aircraft Registration Data
Registration mark
N352NW
Country of Registration
United States
Date of Registration
PnAfqAfAldkmcipfj Subscribe to unlock
TCDS Ident. No.
Manufacturer
AIRBUS INDUSTRIE
Aircraft Model / Type
A320-212
Number of Seats
ICAO Aircraft Type
A320
Year of Manufacture
Serial Number
Aircraft Address / Mode S Code (HEX)
Engine Count
Engine Manufacturer
Engine Model
GikgfkfnfpAh Subscribe to unlock
Engine Type
Main Owner
IgAmAlemkleAfilAhbqeinfmApjfpcppeAqiqfqmmle blhjggpfdpenflijfdbjdhbpdqdedb dbppldpqmlcbgkdjlpl gdlcbpkdbjpmneghAhcdq Subscribe to unlock
Incident Facts

Date of incident
Jun 10, 2012

Classification
Accident

Flight number
DL-888

Aircraft Registration
N352NW

Aircraft Type
Airbus A320

ICAO Type Designator
A320

This article is published under license from Avherald.com. © of text by Avherald.com.
Article source

You can read 2 more free articles without a subscription.

Subscribe now and continue reading without any limits!

Are you a subscriber? Login
Subscribe

Read unlimited articles and receive our daily update briefing. Gain better insights into what is happening in commercial aviation safety.

Send tip

Support AeroInside by sending a small tip amount.

Related articles

Newest articles

Subscribe today

Are you researching aviation incidents? Get access to AeroInside Insights, unlimited read access and receive the daily newsletter.

Pick your plan and subscribe

Partner

Blockaviation logo

A new way to document and demonstrate airworthiness compliance and aircraft value. Find out more.

ELITE Logo

ELITE Simulation Solutions is a leading global provider of Flight Simulation Training Devices, IFR training software as well as flight controls and related services. Find out more.

Blue Altitude Logo

Your regulation partner, specialists in aviation safety and compliance; providing training, auditing, and consultancy services. Find out more.

AeroInside Blog
Popular aircraft
Airbus A320
Boeing 737-800
Boeing 737-800 MAX
Popular airlines
American Airlines
United
Delta
Air Canada
Lufthansa
British Airways